sensor_id;sensor_type;location;lat;lon;timestamp;temperature;humidity
61916;DHT22;47868;51.326;6.550;2022-09-01T00:01:41;22.00;50.00
61916;DHT22;47868;51.326;6.550;2022-09-01T00:04:10;22.00;50.10
61916;DHT22;47868;51.326;6.550;2022-09-01T00:06:37;22.00;50.10
61916;DHT22;47868;51.326;6.550;2022-09-01T00:09:06;22.00;50.20
61916;DHT22;47868;51.326;6.550;2022-09-01T00:11:33;22.00;50.20
61916;DHT22;47868;51.326;6.550;2022-09-01T00:14:01;22.00;50.30
61916;DHT22;47868;51.326;6.550;2022-09-01T00:16:28;22.00;50.40
61916;DHT22;47868;51.326;6.550;2022-09-01T00:18:55;22.00;50.40
61916;DHT22;47868;51.326;6.550;2022-09-01T00:21:28;22.00;50.40
61916;DHT22;47868;51.326;6.550;2022-09-01T00:23:54;21.90;50.50
61916;DHT22;47868;51.326;6.550;2022-09-01T00:26:20;21.90;50.70
61916;DHT22;47868;51.326;6.550;2022-09-01T00:28:45;21.90;50.70
61916;DHT22;47868;51.326;6.550;2022-09-01T00:31:11;21.90;50.80
61916;DHT22;47868;51.326;6.550;2022-09-01T00:33:39;21.90;51.00
61916;DHT22;47868;51.326;6.550;2022-09-01T00:36:06;21.90;51.20
61916;DHT22;47868;51.326;6.550;2022-09-01T00:38:33;21.80;51.20
61916;DHT22;47868;51.326;6.550;2022-09-01T00:40:59;21.80;51.90
61916;DHT22;47868;51.326;6.550;2022-09-01T00:46:08;21.60;51.50
61916;DHT22;47868;51.326;6.550;2022-09-01T00:48:34;21.60;51.80
61916;DHT22;47868;51.326;6.550;2022-09-01T00:51:00;21.60;51.70
61916;DHT22;47868;51.326;6.550;2022-09-01T00:53:27;21.60;51.70
61916;DHT22;47868;51.326;6.550;2022-09-01T00:55:52;21.50;51.80
61916;DHT22;47868;51.326;6.550;2022-09-01T00:58:18;21.50;52.00
61916;DHT22;47868;51.326;6.550;2022-09-01T01:00:46;21.50;52.20
61916;DHT22;47868;51.326;6.550;2022-09-01T01:03:14;21.50;52.20
61916;DHT22;47868;51.326;6.550;2022-09-01T01:05:43;21.40;52.30
61916;DHT22;47868;51.326;6.550;2022-09-01T01:08:11;21.40;52.50
61916;DHT22;47868;51.326;6.550;2022-09-01T01:10:40;21.40;52.50
61916;DHT22;47868;51.326;6.550;2022-09-01T01:13:08;21.30;52.40
61916;DHT22;47868;51.326;6.550;2022-09-01T01:15:35;21.30;52.80
61916;DHT22;47868;51.326;6.550;2022-09-01T01:18:01;21.30;52.80
61916;DHT22;47868;51.326;6.550;2022-09-01T01:20:30;21.20;52.80
61916;DHT22;47868;51.326;6.550;2022-09-01T01:25:56;21.20;52.90
61916;DHT22;47868;51.326;6.550;2022-09-01T01:28:31;21.20;52.90
61916;DHT22;47868;51.326;6.550;2022-09-01T01:31:10;21.20;52.80
61916;DHT22;47868;51.326;6.550;2022-09-01T01:33:50;21.10;53.00
61916;DHT22;47868;51.326;6.550;2022-09-01T01:36:28;21.10;53.20
61916;DHT22;47868;51.326;6.550;2022-09-01T01:39:10;21.10;53.20
61916;DHT22;47868;51.326;6.550;2022-09-01T01:41:40;21.10;53.10
61916;DHT22;47868;51.326;6.550;2022-09-01T01:44:11;21.20;53.00
61916;DHT22;47868;51.326;6.550;2022-09-01T01:46:41;21.10;53.10
61916;DHT22;47868;51.326;6.550;2022-09-01T01:49:09;21.10;53.10
61916;DHT22;47868;51.326;6.550;2022-09-01T01:51:38;21.10;53.20
61916;DHT22;47868;51.326;6.550;2022-09-01T01:54:05;21.20;53.30
61916;DHT22;47868;51.326;6.550;2022-09-01T01:56:33;21.20;53.20
61916;DHT22;47868;51.326;6.550;2022-09-01T01:59:04;21.10;53.30
61916;DHT22;47868;51.326;6.550;2022-09-01T02:01:31;21.20;53.50
61916;DHT22;47868;51.326;6.550;2022-09-01T02:03:59;21.20;53.60
61916;DHT22;47868;51.326;6.550;2022-09-01T02:06:26;21.20;53.60
61916;DHT22;47868;51.326;6.550;2022-09-01T02:08:55;21.10;53.40
61916;DHT22;47868;51.326;6.550;2022-09-01T02:11:24;21.10;53.70
61916;DHT22;47868;51.326;6.550;2022-09-01T02:13:54;21.10;53.80
61916;DHT22;47868;51.326;6.550;2022-09-01T02:16:30;21.10;53.90
61916;DHT22;47868;51.326;6.550;2022-09-01T02:18:57;21.00;54.00
61916;DHT22;47868;51.326;6.550;2022-09-01T02:21:24;21.00;54.20
61916;DHT22;47868;51.326;6.550;2022-09-01T02:23:54;20.90;54.40
61916;DHT22;47868;51.326;6.550;2022-09-01T02:26:35;20.90;54.70
61916;DHT22;47868;51.326;6.550;2022-09-01T02:29:06;20.90;54.90
61916;DHT22;47868;51.326;6.550;2022-09-01T02:31:35;20.80;55.00
61916;DHT22;47868;51.326;6.550;2022-09-01T02:34:04;20.80;55.10
61916;DHT22;47868;51.326;6.550;2022-09-01T02:36:30;20.80;55.30
61916;DHT22;47868;51.326;6.550;2022-09-01T02:38:59;20.70;55.50
61916;DHT22;47868;51.326;6.550;2022-09-01T02:41:25;20.60;55.80
61916;DHT22;47868;51.326;6.550;2022-09-01T02:43:56;20.60;55.90
61916;DHT22;47868;51.326;6.550;2022-09-01T02:46:26;20.60;56.10
61916;DHT22;47868;51.326;6.550;2022-09-01T02:48:54;20.60;56.20
61916;DHT22;47868;51.326;6.550;2022-09-01T02:51:21;20.60;56.30
61916;DHT22;47868;51.326;6.550;2022-09-01T02:53:50;20.60;56.50
61916;DHT22;47868;51.326;6.550;2022-09-01T02:56:18;20.50;56.70
61916;DHT22;47868;51.326;6.550;2022-09-01T02:58:45;20.50;56.90
61916;DHT22;47868;51.326;6.550;2022-09-01T03:03:38;20.50;57.10
61916;DHT22;47868;51.326;6.550;2022-09-01T03:06:04;20.50;57.40
61916;DHT22;47868;51.326;6.550;2022-09-01T03:08:32;20.40;57.60
61916;DHT22;47868;51.326;6.550;2022-09-01T03:11:01;20.40;57.70
61916;DHT22;47868;51.326;6.550;2022-09-01T03:13:27;20.40;57.90
61916;DHT22;47868;51.326;6.550;2022-09-01T03:15:53;20.40;58.10
61916;DHT22;47868;51.326;6.550;2022-09-01T03:18:19;20.40;58.20
61916;DHT22;47868;51.326;6.550;2022-09-01T03:20:45;20.30;58.40
61916;DHT22;47868;51.326;6.550;2022-09-01T03:23:14;20.30;58.50
61916;DHT22;47868;51.326;6.550;2022-09-01T03:25:44;20.30;58.50
61916;DHT22;47868;51.326;6.550;2022-09-01T03:28:11;20.30;58.50
61916;DHT22;47868;51.326;6.550;2022-09-01T03:30:38;20.20;58.50
61916;DHT22;47868;51.326;6.550;2022-09-01T03:33:07;20.20;58.80
61916;DHT22;47868;51.326;6.550;2022-09-01T03:35:33;20.20;58.90
61916;DHT22;47868;51.326;6.550;2022-09-01T03:38:00;20.20;59.10
61916;DHT22;47868;51.326;6.550;2022-09-01T03:40:29;20.10;59.20
61916;DHT22;47868;51.326;6.550;2022-09-01T03:42:58;20.10;59.60
61916;DHT22;47868;51.326;6.550;2022-09-01T03:45:24;20.10;59.70
61916;DHT22;47868;51.326;6.550;2022-09-01T03:47:51;20.10;59.80
61916;DHT22;47868;51.326;6.550;2022-09-01T03:50:21;20.10;59.90
61916;DHT22;47868;51.326;6.550;2022-09-01T03:52:52;20.00;59.80
61916;DHT22;47868;51.326;6.550;2022-09-01T03:55:24;20.00;59.90
61916;DHT22;47868;51.326;6.550;2022-09-01T03:57:53;20.00;59.70
61916;DHT22;47868;51.326;6.550;2022-09-01T04:00:22;20.00;59.40
61916;DHT22;47868;51.326;6.550;2022-09-01T04:02:53;20.00;60.40
61916;DHT22;47868;51.326;6.550;2022-09-01T04:05:22;19.90;60.00
61916;DHT22;47868;51.326;6.550;2022-09-01T04:07:54;19.90;60.00
61916;DHT22;47868;51.326;6.550;2022-09-01T04:10:20;19.90;60.10
61916;DHT22;47868;51.326;6.550;2022-09-01T04:12:47;19.90;60.30
61916;DHT22;47868;51.326;6.550;2022-09-01T04:15:14;19.90;60.60
61916;DHT22;47868;51.326;6.550;2022-09-01T04:17:42;19.90;60.80
61916;DHT22;47868;51.326;6.550;2022-09-01T04:20:26;19.90;60.90
61916;DHT22;47868;51.326;6.550;2022-09-01T04:22:53;19.90;61.10
61916;DHT22;47868;51.326;6.550;2022-09-01T04:25:20;19.90;61.10
61916;DHT22;47868;51.326;6.550;2022-09-01T04:27:51;19.80;60.90
61916;DHT22;47868;51.326;6.550;2022-09-01T04:30:21;19.80;60.80
61916;DHT22;47868;51.326;6.550;2022-09-01T04:32:49;19.80;60.60
61916;DHT22;47868;51.326;6.550;2022-09-01T04:35:16;19.70;60.60
61916;DHT22;47868;51.326;6.550;2022-09-01T04:37:43;19.80;60.60
61916;DHT22;47868;51.326;6.550;2022-09-01T04:40:12;19.80;60.60
61916;DHT22;47868;51.326;6.550;2022-09-01T04:42:38;19.80;60.40
61916;DHT22;47868;51.326;6.550;2022-09-01T04:45:07;19.80;60.40
61916;DHT22;47868;51.326;6.550;2022-09-01T04:47:35;19.80;60.50
61916;DHT22;47868;51.326;6.550;2022-09-01T04:50:04;19.80;60.80
61916;DHT22;47868;51.326;6.550;2022-09-01T04:52:37;19.80;61.00
61916;DHT22;47868;51.326;6.550;2022-09-01T04:55:03;19.70;61.00
61916;DHT22;47868;51.326;6.550;2022-09-01T04:57:29;19.80;61.20
61916;DHT22;47868;51.326;6.550;2022-09-01T04:59:55;19.70;61.50
61916;DHT22;47868;51.326;6.550;2022-09-01T05:02:22;19.70;61.70
61916;DHT22;47868;51.326;6.550;2022-09-01T05:04:51;19.70;61.80
61916;DHT22;47868;51.326;6.550;2022-09-01T05:07:19;19.70;62.00
61916;DHT22;47868;51.326;6.550;2022-09-01T05:09:45;19.70;61.80
61916;DHT22;47868;51.326;6.550;2022-09-01T05:12:11;19.70;62.20
61916;DHT22;47868;51.326;6.550;2022-09-01T05:14:43;19.70;62.10
61916;DHT22;47868;51.326;6.550;2022-09-01T05:17:10;19.70;62.50
61916;DHT22;47868;51.326;6.550;2022-09-01T05:19:41;19.70;62.40
61916;DHT22;47868;51.326;6.550;2022-09-01T05:22:08;19.70;62.70
61916;DHT22;47868;51.326;6.550;2022-09-01T05:24:35;19.70;63.10
61916;DHT22;47868;51.326;6.550;2022-09-01T05:27:03;19.70;63.40
61916;DHT22;47868;51.326;6.550;2022-09-01T05:29:29;19.70;63.50
61916;DHT22;47868;51.326;6.550;2022-09-01T05:31:55;19.70;63.80
61916;DHT22;47868;51.326;6.550;2022-09-01T05:34:23;19.70;63.80
61916;DHT22;47868;51.326;6.550;2022-09-01T05:36:55;19.70;64.20
61916;DHT22;47868;51.326;6.550;2022-09-01T05:39:23;19.70;64.20
61916;DHT22;47868;51.326;6.550;2022-09-01T05:41:49;19.70;64.50
61916;DHT22;47868;51.326;6.550;2022-09-01T05:44:15;19.70;64.60
61916;DHT22;47868;51.326;6.550;2022-09-01T05:46:43;19.70;64.50
61916;DHT22;47868;51.326;6.550;2022-09-01T05:49:09;19.70;64.60
61916;DHT22;47868;51.326;6.550;2022-09-01T05:51:42;19.30;64.50
61916;DHT22;47868;51.326;6.550;2022-09-01T05:54:09;19.70;65.00
61916;DHT22;47868;51.326;6.550;2022-09-01T05:56:37;19.80;65.30
61916;DHT22;47868;51.326;6.550;2022-09-01T05:59:06;19.80;65.50
61916;DHT22;47868;51.326;6.550;2022-09-01T06:01:32;19.80;65.40
61916;DHT22;47868;51.326;6.550;2022-09-01T06:04:00;19.80;65.40
61916;DHT22;47868;51.326;6.550;2022-09-01T06:06:34;19.80;65.40
61916;DHT22;47868;51.326;6.550;2022-09-01T06:09:06;19.80;65.70
61916;DHT22;47868;51.326;6.550;2022-09-01T06:11:32;19.80;65.90
61916;DHT22;47868;51.326;6.550;2022-09-01T06:13:59;19.90;66.10
61916;DHT22;47868;51.326;6.550;2022-09-01T06:16:26;19.90;66.10
61916;DHT22;47868;51.326;6.550;2022-09-01T06:18:53;19.90;65.70
61916;DHT22;47868;51.326;6.550;2022-09-01T06:21:21;19.90;65.60
61916;DHT22;47868;51.326;6.550;2022-09-01T06:23:47;19.90;65.90
61916;DHT22;47868;51.326;6.550;2022-09-01T06:28:44;20.00;65.50
61916;DHT22;47868;51.326;6.550;2022-09-01T06:31:10;20.00;65.40
61916;DHT22;47868;51.326;6.550;2022-09-01T06:33:37;20.00;65.80
61916;DHT22;47868;51.326;6.550;2022-09-01T06:36:04;20.10;65.10
61916;DHT22;47868;51.326;6.550;2022-09-01T06:38:30;20.10;65.60
61916;DHT22;47868;51.326;6.550;2022-09-01T06:41:03;20.10;65.80
61916;DHT22;47868;51.326;6.550;2022-09-01T06:43:31;20.10;66.00
61916;DHT22;47868;51.326;6.550;2022-09-01T06:46:00;20.20;65.50
61916;DHT22;47868;51.326;6.550;2022-09-01T06:48:27;20.30;66.00
61916;DHT22;47868;51.326;6.550;2022-09-01T06:50:58;20.30;65.80
61916;DHT22;47868;51.326;6.550;2022-09-01T06:53:25;20.40;65.60
61916;DHT22;47868;51.326;6.550;2022-09-01T06:55:51;20.40;65.50
61916;DHT22;47868;51.326;6.550;2022-09-01T06:58:18;20.40;65.50
61916;DHT22;47868;51.326;6.550;2022-09-01T07:00:44;20.50;65.50
61916;DHT22;47868;51.326;6.550;2022-09-01T07:03:11;20.50;65.40
61916;DHT22;47868;51.326;6.550;2022-09-01T07:05:43;20.60;65.50
61916;DHT22;47868;51.326;6.550;2022-09-01T07:08:11;20.70;65.20
61916;DHT22;47868;51.326;6.550;2022-09-01T07:10:44;20.70;65.00
61916;DHT22;47868;51.326;6.550;2022-09-01T07:13:16;20.70;65.00
61916;DHT22;47868;51.326;6.550;2022-09-01T07:15:44;20.70;64.40
61916;DHT22;47868;51.326;6.550;2022-09-01T07:18:13;20.80;65.20
61916;DHT22;47868;51.326;6.550;2022-09-01T07:20:40;20.80;64.50
61916;DHT22;47868;51.326;6.550;2022-09-01T07:23:06;20.90;64.80
61916;DHT22;47868;51.326;6.550;2022-09-01T07:25:33;20.90;64.50
61916;DHT22;47868;51.326;6.550;2022-09-01T07:28:03;21.00;64.50
61916;DHT22;47868;51.326;6.550;2022-09-01T07:30:30;21.10;64.40
61916;DHT22;47868;51.326;6.550;2022-09-01T07:32:56;21.10;63.50
61916;DHT22;47868;51.326;6.550;2022-09-01T07:35:22;21.10;63.50
61916;DHT22;47868;51.326;6.550;2022-09-01T07:37:48;21.20;63.50
61916;DHT22;47868;51.326;6.550;2022-09-01T07:40:16;21.20;63.70
61916;DHT22;47868;51.326;6.550;2022-09-01T07:42:44;21.20;63.40
61916;DHT22;47868;51.326;6.550;2022-09-01T07:45:13;21.30;63.10
61916;DHT22;47868;51.326;6.550;2022-09-01T07:47:40;21.40;63.20
61916;DHT22;47868;51.326;6.550;2022-09-01T07:50:08;21.40;63.20
61916;DHT22;47868;51.326;6.550;2022-09-01T07:52:36;21.50;63.20
61916;DHT22;47868;51.326;6.550;2022-09-01T07:55:11;21.60;63.30
61916;DHT22;47868;51.326;6.550;2022-09-01T07:57:39;21.70;63.00
61916;DHT22;47868;51.326;6.550;2022-09-01T08:00:08;21.70;62.50
61916;DHT22;47868;51.326;6.550;2022-09-01T08:02:36;21.80;62.60
61916;DHT22;47868;51.326;6.550;2022-09-01T08:05:07;21.90;62.20
61916;DHT22;47868;51.326;6.550;2022-09-01T08:07:36;21.90;61.50
61916;DHT22;47868;51.326;6.550;2022-09-01T08:10:04;22.00;61.20
61916;DHT22;47868;51.326;6.550;2022-09-01T08:12:30;22.10;59.90
61916;DHT22;47868;51.326;6.550;2022-09-01T08:14:56;22.20;59.50
61916;DHT22;47868;51.326;6.550;2022-09-01T08:17:22;22.30;58.50
61916;DHT22;47868;51.326;6.550;2022-09-01T08:19:48;22.40;58.60
61916;DHT22;47868;51.326;6.550;2022-09-01T08:22:14;22.50;58.10
61916;DHT22;47868;51.326;6.550;2022-09-01T08:24:41;22.70;57.80
61916;DHT22;47868;51.326;6.550;2022-09-01T08:27:07;22.80;56.80
61916;DHT22;47868;51.326;6.550;2022-09-01T08:29:33;23.00;56.80
61916;DHT22;47868;51.326;6.550;2022-09-01T08:31:59;23.10;56.20
61916;DHT22;47868;51.326;6.550;2022-09-01T08:34:25;23.20;55.90
61916;DHT22;47868;51.326;6.550;2022-09-01T08:36:51;23.30;54.70
61916;DHT22;47868;51.326;6.550;2022-09-01T08:39:17;23.40;54.00
61916;DHT22;47868;51.326;6.550;2022-09-01T08:44:46;23.60;53.90
61916;DHT22;47868;51.326;6.550;2022-09-01T08:47:17;23.70;53.60
61916;DHT22;47868;51.326;6.550;2022-09-01T08:49:44;23.80;51.80
61916;DHT22;47868;51.326;6.550;2022-09-01T08:52:27;23.80;51.30
61916;DHT22;47868;51.326;6.550;2022-09-01T08:57:28;23.90;51.20
61916;DHT22;47868;51.326;6.550;2022-09-01T08:59:56;24.00;50.70
61916;DHT22;47868;51.326;6.550;2022-09-01T09:16:22;24.20;49.20
61916;DHT22;47868;51.326;6.550;2022-09-01T09:19:49;24.20;48.60
61916;DHT22;47868;51.326;6.550;2022-09-01T09:21:48;24.20;47.70
61916;DHT22;47868;51.326;6.550;2022-09-01T09:24:31;24.20;47.90
61916;DHT22;47868;51.326;6.550;2022-09-01T09:29:51;24.30;47.70
61916;DHT22;47868;51.326;6.550;2022-09-01T09:32:19;24.30;47.50
61916;DHT22;47868;51.326;6.550;2022-09-01T09:34:46;24.10;45.10
61916;DHT22;47868;51.326;6.550;2022-09-01T09:42:31;24.50;45.00
61916;DHT22;47868;51.326;6.550;2022-09-01T09:44:58;24.60;44.90
61916;DHT22;47868;51.326;6.550;2022-09-01T09:47:41;24.60;45.60
61916;DHT22;47868;51.326;6.550;2022-09-01T09:52:44;24.80;43.30
61916;DHT22;47868;51.326;6.550;2022-09-01T09:55:21;24.90;42.40
61916;DHT22;47868;51.326;6.550;2022-09-01T09:57:47;24.90;43.30
61916;DHT22;47868;51.326;6.550;2022-09-01T10:00:28;25.10;43.80
61916;DHT22;47868;51.326;6.550;2022-09-01T10:03:06;25.10;43.70
61916;DHT22;47868;51.326;6.550;2022-09-01T10:08:02;25.30;42.60
61916;DHT22;47868;51.326;6.550;2022-09-01T10:10:46;25.40;42.70
61916;DHT22;47868;51.326;6.550;2022-09-01T10:13:17;25.40;42.30
61916;DHT22;47868;51.326;6.550;2022-09-01T10:15:47;25.50;42.00
61916;DHT22;47868;51.326;6.550;2022-09-01T10:18:23;25.60;42.30
61916;DHT22;47868;51.326;6.550;2022-09-01T10:23:32;25.70;42.20
61916;DHT22;47868;51.326;6.550;2022-09-01T10:26:26;25.80;41.80
61916;DHT22;47868;51.326;6.550;2022-09-01T10:28:59;25.90;41.60
61916;DHT22;47868;51.326;6.550;2022-09-01T10:31:26;26.00;42.60
61916;DHT22;47868;51.326;6.550;2022-09-01T10:33:52;26.10;41.70
61916;DHT22;47868;51.326;6.550;2022-09-01T10:36:18;26.20;41.00
61916;DHT22;47868;51.326;6.550;2022-09-01T10:38:45;26.30;41.10
61916;DHT22;47868;51.326;6.550;2022-09-01T10:44:17;26.50;39.90
61916;DHT22;47868;51.326;6.550;2022-09-01T10:46:45;26.50;38.70
61916;DHT22;47868;51.326;6.550;2022-09-01T10:52:08;26.60;38.70
61916;DHT22;47868;51.326;6.550;2022-09-01T10:57:35;26.90;39.80
61916;DHT22;47868;51.326;6.550;2022-09-01T11:16:30;28.60;36.40
61916;DHT22;47868;51.326;6.550;2022-09-01T11:31:02;32.00;32.20
61916;DHT22;47868;51.326;6.550;2022-09-01T11:36:25;33.20;30.20
61916;DHT22;47868;51.326;6.550;2022-09-01T11:39:03;34.00;29.70
61916;DHT22;47868;51.326;6.550;2022-09-01T11:41:31;34.70;28.90
61916;DHT22;47868;51.326;6.550;2022-09-01T11:43:59;35.40;27.50
61916;DHT22;47868;51.326;6.550;2022-09-01T11:46:35;36.00;26.50
61916;DHT22;47868;51.326;6.550;2022-09-01T11:49:29;36.30;25.80
61916;DHT22;47868;51.326;6.550;2022-09-01T11:51:57;36.50;25.60
61916;DHT22;47868;51.326;6.550;2022-09-01T11:54:24;36.40;25.10
61916;DHT22;47868;51.326;6.550;2022-09-01T11:56:50;37.30;25.70
61916;DHT22;47868;51.326;6.550;2022-09-01T11:59:36;38.00;24.70
61916;DHT22;47868;51.326;6.550;2022-09-01T12:02:02;37.90;23.70
61916;DHT22;47868;51.326;6.550;2022-09-01T12:04:33;38.80;23.80
61916;DHT22;47868;51.326;6.550;2022-09-01T12:07:12;39.00;23.70
61916;DHT22;47868;51.326;6.550;2022-09-01T12:09:43;39.80;23.20
61916;DHT22;47868;51.326;6.550;2022-09-01T12:12:35;40.60;22.90
61916;DHT22;47868;51.326;6.550;2022-09-01T12:15:10;41.30;22.50
61916;DHT22;47868;51.326;6.550;2022-09-01T12:17:36;42.00;21.60
61916;DHT22;47868;51.326;6.550;2022-09-01T12:20:26;42.50;21.00
61916;DHT22;47868;51.326;6.550;2022-09-01T12:22:54;42.50;20.40
61916;DHT22;47868;51.326;6.550;2022-09-01T12:25:24;41.60;20.40
61916;DHT22;47868;51.326;6.550;2022-09-01T12:27:51;40.90;20.20
61916;DHT22;47868;51.326;6.550;2022-09-01T12:30:18;40.80;20.50
61916;DHT22;47868;51.326;6.550;2022-09-01T12:32:45;41.50;20.40
61916;DHT22;47868;51.326;6.550;2022-09-01T12:35:20;40.20;20.70
61916;DHT22;47868;51.326;6.550;2022-09-01T12:37:46;40.20;21.80
61916;DHT22;47868;51.326;6.550;2022-09-01T12:40:30;40.50;21.40
61916;DHT22;47868;51.326;6.550;2022-09-01T12:42:56;39.60;21.60
61916;DHT22;47868;51.326;6.550;2022-09-01T12:45:40;39.00;22.20
61916;DHT22;47868;51.326;6.550;2022-09-01T12:48:06;37.70;23.00
61916;DHT22;47868;51.326;6.550;2022-09-01T12:50:34;38.00;23.60
61916;DHT22;47868;51.326;6.550;2022-09-01T12:53:02;39.90;22.40
61916;DHT22;47868;51.326;6.550;2022-09-01T12:55:32;40.30;21.80
61916;DHT22;47868;51.326;6.550;2022-09-01T12:58:00;41.90;21.10
61916;DHT22;47868;51.326;6.550;2022-09-01T13:00:28;42.30;20.30
61916;DHT22;47868;51.326;6.550;2022-09-01T13:07:57;45.30;18.00
61916;DHT22;47868;51.326;6.550;2022-09-01T13:10:25;46.40;17.40
61916;DHT22;47868;51.326;6.550;2022-09-01T13:12:53;47.50;17.10
61916;DHT22;47868;51.326;6.550;2022-09-01T13:15:19;48.40;15.90
61916;DHT22;47868;51.326;6.550;2022-09-01T13:17:45;49.20;16.10
61916;DHT22;47868;51.326;6.550;2022-09-01T13:20:11;49.90;15.60
61916;DHT22;47868;51.326;6.550;2022-09-01T13:22:38;50.30;15.50
61916;DHT22;47868;51.326;6.550;2022-09-01T13:25:06;47.80;15.70
61916;DHT22;47868;51.326;6.550;2022-09-01T13:27:33;44.80;17.00
61916;DHT22;47868;51.326;6.550;2022-09-01T13:29:58;42.40;17.70
61916;DHT22;47868;51.326;6.550;2022-09-01T13:32:24;40.90;19.60
61916;DHT22;47868;51.326;6.550;2022-09-01T13:34:51;39.30;20.20
61916;DHT22;47868;51.326;6.550;2022-09-01T13:37:18;38.30;21.10
61916;DHT22;47868;51.326;6.550;2022-09-01T13:39:44;42.60;20.10
61916;DHT22;47868;51.326;6.550;2022-09-01T13:42:11;46.50;17.70
61916;DHT22;47868;51.326;6.550;2022-09-01T13:44:38;45.60;16.50
61916;DHT22;47868;51.326;6.550;2022-09-01T13:47:04;48.20;16.50
61916;DHT22;47868;51.326;6.550;2022-09-01T13:49:30;50.00;15.70
61916;DHT22;47868;51.326;6.550;2022-09-01T13:51:56;52.00;15.00
61916;DHT22;47868;51.326;6.550;2022-09-01T13:54:21;53.60;14.20
61916;DHT22;47868;51.326;6.550;2022-09-01T13:56:47;55.10;13.50
61916;DHT22;47868;51.326;6.550;2022-09-01T13:59:12;55.50;12.90
61916;DHT22;47868;51.326;6.550;2022-09-01T14:01:38;56.50;12.50
61916;DHT22;47868;51.326;6.550;2022-09-01T14:04:07;56.70;11.70
61916;DHT22;47868;51.326;6.550;2022-09-01T14:06:39;55.40;12.20
61916;DHT22;47868;51.326;6.550;2022-09-01T14:09:04;56.40;12.20
61916;DHT22;47868;51.326;6.550;2022-09-01T14:11:30;54.40;11.70
61916;DHT22;47868;51.326;6.550;2022-09-01T14:13:56;49.90;13.00
61916;DHT22;47868;51.326;6.550;2022-09-01T14:16:22;46.30;14.70
61916;DHT22;47868;51.326;6.550;2022-09-01T14:18:47;43.70;16.10
61916;DHT22;47868;51.326;6.550;2022-09-01T14:21:14;41.90;17.10
61916;DHT22;47868;51.326;6.550;2022-09-01T14:23:42;44.10;16.50
61916;DHT22;47868;51.326;6.550;2022-09-01T14:26:10;44.90;16.90
61916;DHT22;47868;51.326;6.550;2022-09-01T14:28:37;45.40;15.20
61916;DHT22;47868;51.326;6.550;2022-09-01T14:31:07;43.00;16.40
61916;DHT22;47868;51.326;6.550;2022-09-01T14:33:34;42.80;16.80
61916;DHT22;47868;51.326;6.550;2022-09-01T14:36:00;46.00;15.90
61916;DHT22;47868;51.326;6.550;2022-09-01T14:38:26;47.20;15.30
61916;DHT22;47868;51.326;6.550;2022-09-01T14:40:51;48.50;14.50
61916;DHT22;47868;51.326;6.550;2022-09-01T14:43:17;48.10;14.20
61916;DHT22;47868;51.326;6.550;2022-09-01T14:45:43;46.50;14.70
61916;DHT22;47868;51.326;6.550;2022-09-01T14:48:11;47.60;15.20
61916;DHT22;47868;51.326;6.550;2022-09-01T14:50:40;49.10;14.00
61916;DHT22;47868;51.326;6.550;2022-09-01T14:53:06;47.60;14.40
61916;DHT22;47868;51.326;6.550;2022-09-01T14:55:32;44.70;15.60
61916;DHT22;47868;51.326;6.550;2022-09-01T14:57:58;42.00;16.80
61916;DHT22;47868;51.326;6.550;2022-09-01T15:00:24;40.10;18.20
61916;DHT22;47868;51.326;6.550;2022-09-01T15:02:52;38.70;19.20
61916;DHT22;47868;51.326;6.550;2022-09-01T15:05:18;37.70;20.10
61916;DHT22;47868;51.326;6.550;2022-09-01T15:07:44;37.70;20.50
61916;DHT22;47868;51.326;6.550;2022-09-01T15:10:12;37.40;20.40
61916;DHT22;47868;51.326;6.550;2022-09-01T15:12:38;36.80;21.40
61916;DHT22;47868;51.326;6.550;2022-09-01T15:15:05;36.30;21.20
61916;DHT22;47868;51.326;6.550;2022-09-01T15:17:32;35.70;21.80
61916;DHT22;47868;51.326;6.550;2022-09-01T15:19:59;35.40;22.10
61916;DHT22;47868;51.326;6.550;2022-09-01T15:22:46;35.00;22.70
61916;DHT22;47868;51.326;6.550;2022-09-01T15:25:12;36.00;22.10
61916;DHT22;47868;51.326;6.550;2022-09-01T15:27:38;39.50;20.30
61916;DHT22;47868;51.326;6.550;2022-09-01T15:30:04;41.40;19.90
61916;DHT22;47868;51.326;6.550;2022-09-01T15:32:39;44.80;17.60
61916;DHT22;47868;51.326;6.550;2022-09-01T15:35:06;46.90;15.80
61916;DHT22;47868;51.326;6.550;2022-09-01T15:37:32;45.20;15.40
61916;DHT22;47868;51.326;6.550;2022-09-01T15:39:58;42.90;16.80
61916;DHT22;47868;51.326;6.550;2022-09-01T15:42:24;41.50;17.90
61916;DHT22;47868;51.326;6.550;2022-09-01T15:44:51;44.00;17.90
61916;DHT22;47868;51.326;6.550;2022-09-01T15:47:16;45.60;16.90
61916;DHT22;47868;51.326;6.550;2022-09-01T15:49:42;43.20;16.40
61916;DHT22;47868;51.326;6.550;2022-09-01T15:52:08;43.70;17.20
61916;DHT22;47868;51.326;6.550;2022-09-01T15:54:37;45.20;15.90
61916;DHT22;47868;51.326;6.550;2022-09-01T15:57:04;46.50;15.60
61916;DHT22;47868;51.326;6.550;2022-09-01T15:59:29;47.60;15.00
61916;DHT22;47868;51.326;6.550;2022-09-01T16:01:56;47.90;14.50
61916;DHT22;47868;51.326;6.550;2022-09-01T16:04:22;48.20;14.50
61916;DHT22;47868;51.326;6.550;2022-09-01T16:06:48;48.30;14.40
61916;DHT22;47868;51.326;6.550;2022-09-01T16:09:16;48.10;14.30
61916;DHT22;47868;51.326;6.550;2022-09-01T16:11:43;47.60;14.10
61916;DHT22;47868;51.326;6.550;2022-09-01T16:14:09;44.40;15.20
61916;DHT22;47868;51.326;6.550;2022-09-01T16:21:57;42.60;17.30
61916;DHT22;47868;51.326;6.550;2022-09-01T16:24:25;41.50;17.10
61916;DHT22;47868;51.326;6.550;2022-09-01T16:26:51;40.10;18.00
61916;DHT22;47868;51.326;6.550;2022-09-01T16:29:39;38.80;19.00
61916;DHT22;47868;51.326;6.550;2022-09-01T16:32:06;37.40;19.90
61916;DHT22;47868;51.326;6.550;2022-09-01T16:34:32;36.50;20.70
61916;DHT22;47868;51.326;6.550;2022-09-01T16:37:04;35.70;21.40
61916;DHT22;47868;51.326;6.550;2022-09-01T16:39:45;35.20;21.80
61916;DHT22;47868;51.326;6.550;2022-09-01T16:45:30;34.30;22.60
61916;DHT22;47868;51.326;6.550;2022-09-01T16:56:13;33.00;23.60
61916;DHT22;47868;51.326;6.550;2022-09-01T16:58:47;32.80;24.00
61916;DHT22;47868;51.326;6.550;2022-09-01T17:06:33;32.20;24.50
61916;DHT22;47868;51.326;6.550;2022-09-01T17:09:40;32.00;24.40
61916;DHT22;47868;51.326;6.550;2022-09-01T17:14:43;31.60;24.70
61916;DHT22;47868;51.326;6.550;2022-09-01T17:17:16;31.30;25.10
61916;DHT22;47868;51.326;6.550;2022-09-01T17:19:44;31.20;25.40
61916;DHT22;47868;51.326;6.550;2022-09-01T17:22:16;31.10;25.30
61916;DHT22;47868;51.326;6.550;2022-09-01T17:24:47;30.90;26.10
61916;DHT22;47868;51.326;6.550;2022-09-01T17:27:37;30.70;25.60
61916;DHT22;47868;51.326;6.550;2022-09-01T17:30:08;30.50;25.60
61916;DHT22;47868;51.326;6.550;2022-09-01T17:44:21;29.80;26.50
61916;DHT22;47868;51.326;6.550;2022-09-01T17:52:39;29.40;26.90
61916;DHT22;47868;51.326;6.550;2022-09-01T18:00:39;29.10;26.70